Time;durP1;ratioP1;P1;durP2;ratioP2;P2;SDS_P1;SDS_P2;PMS_P1;PMS_P2;Temp;Humidity;BMP_temperature;BMP_pressure;BME280_temperature;BME280_humidity;BME280_pressure;Samples;Min_cycle;Max_cycle;Signal;HPM_P1;HPM_P2
2023/11/16 00:00:48;;;;;;;47.63;20.20;;;;;;;5.54;100.00;98425.25;5015412;28;20929;-72
2023/11/16 00:03:14;;;;;;;53.00;20.97;;;;;;;5.54;100.00;98430.53;5054900;28;20062;-72
2023/11/16 00:05:44;;;;;;;42.77;19.60;;;;;;;5.73;100.00;98425.03;5022147;28;20150;-73
2023/11/16 00:08:10;;;;;;;45.38;20.30;;;;;;;5.53;100.00;98431.50;5037571;28;20079;-73
2023/11/16 00:10:36;;;;;;;46.13;20.50;;;;;;;5.51;100.00;98424.72;5046550;28;20534;-70
2023/11/16 00:13:02;;;;;;;45.53;20.23;;;;;;;5.58;100.00;98434.47;5059746;28;20047;-72
2023/11/16 00:15:30;;;;;;;48.10;21.50;;;;;;;5.70;100.00;98422.72;5033035;28;20081;-72
2023/11/16 00:17:57;;;;;;;50.33;20.87;;;;;;;5.72;100.00;98426.00;5032131;28;20085;-71
2023/11/16 00:20:29;;;;;;;41.33;20.23;;;;;;;5.97;100.00;98427.81;4961155;28;20057;-72
2023/11/16 00:22:55;;;;;;;42.10;20.10;;;;;;;5.82;100.00;98431.19;4994002;28;20545;-70
2023/11/16 00:25:22;;;;;;;47.20;19.77;;;;;;;5.88;100.00;98435.81;4978644;28;20046;-70
2023/11/16 00:27:48;;;;;;;41.20;19.57;;;;;;;5.89;100.00;98437.50;4978514;28;20063;-70
2023/11/16 00:30:14;;;;;;;44.77;21.13;;;;;;;5.89;100.00;98437.50;4985610;28;20057;-70
2023/11/16 00:32:40;;;;;;;42.60;20.42;;;;;;;5.88;100.00;98443.72;4999569;28;20061;-71
2023/11/16 00:35:07;;;;;;;41.38;20.70;;;;;;;5.94;100.00;98440.47;5014941;28;20152;-72
2023/11/16 00:37:34;;;;;;;42.35;19.45;;;;;;;5.94;100.00;98437.81;4982164;28;20770;-71
2023/11/16 00:40:00;;;;;;;45.33;20.30;;;;;;;5.96;100.00;98439.34;4998627;28;20087;-72
2023/11/16 00:42:30;;;;;;;43.10;20.75;;;;;;;5.97;100.00;98450.69;5014918;28;20048;-71
2023/11/16 00:44:56;;;;;;;42.92;20.55;;;;;;;5.95;100.00;98442.94;4998185;28;20098;-71
2023/11/16 00:47:24;;;;;;;39.70;20.17;;;;;;;5.96;100.00;98441.97;5050669;28;20084;-70
2023/11/16 00:49:52;;;;;;;43.83;20.10;;;;;;;6.13;100.00;98443.69;5056001;28;20549;-72
2023/11/16 00:52:20;;;;;;;47.40;20.75;;;;;;;6.08;100.00;98435.44;5057385;28;20056;-72
2023/11/16 00:54:53;;;;;;;42.25;19.70;;;;;;;6.24;100.00;98432.84;5040610;28;20113;-73
2023/11/16 00:57:20;;;;;;;44.13;19.98;;;;;;;6.05;100.00;98446.28;5060260;28;20052;-72
2023/11/16 00:59:46;;;;;;;41.92;20.27;;;;;;;6.10;100.00;98440.53;5060290;28;20134;-71
2023/11/16 01:02:14;;;;;;;45.63;20.90;;;;;;;6.26;100.00;98441.41;5060656;28;20078;-71
2023/11/16 01:04:41;;;;;;;43.45;19.98;;;;;;;6.14;100.00;98445.34;5077228;28;20135;-72
2023/11/16 01:07:10;;;;;;;48.90;19.80;;;;;;;6.18;100.00;98448.47;5112608;27;20145;-72
2023/11/16 01:09:38;;;;;;;44.75;20.75;;;;;;;6.32;100.00;98439.97;5098354;27;20386;-71
2023/11/16 01:12:11;;;;;;;43.07;19.00;;;;;;;6.23;100.00;98446.19;5098663;27;20046;-71
2023/11/16 01:17:38;;;;;;;40.10;18.52;;;;;;;6.24;100.00;98448.66;5089690;27;20156;-70
2023/11/16 01:20:18;;;;;;;42.45;19.67;;;;;;;6.33;100.00;98449.53;5098952;27;20047;-72
2023/11/16 01:22:50;;;;;;;38.97;18.85;;;;;;;6.38;100.00;98452.50;5114403;28;20051;-71
2023/11/16 01:25:19;;;;;;;39.95;19.10;;;;;;;6.32;100.00;98453.97;5080958;27;20051;-72
2023/11/16 01:27:50;;;;;;;38.33;17.92;;;;;;;6.33;100.00;98452.16;5112861;27;20061;-73
2023/11/16 01:30:18;;;;;;;35.17;18.90;;;;;;;6.32;100.00;98450.53;5097388;28;20043;-71
2023/11/16 01:32:45;;;;;;;39.65;18.80;;;;;;;6.41;100.00;98453.00;5047403;28;20051;-71
2023/11/16 01:35:12;;;;;;;43.83;19.60;;;;;;;6.36;100.00;98452.66;5081086;28;20051;-71
2023/11/16 01:37:42;;;;;;;41.53;19.63;;;;;;;6.39;100.00;98454.97;5097424;28;20035;-72
2023/11/16 01:40:09;;;;;;;39.92;19.73;;;;;;;6.37;100.00;98453.47;5079731;28;20066;-71
2023/11/16 01:42:35;;;;;;;42.72;19.55;;;;;;;6.36;100.00;98452.66;5079713;28;20039;-71
2023/11/16 01:45:01;;;;;;;34.33;18.35;;;;;;;6.34;100.00;98459.91;5039680;28;20063;-70
2023/11/16 01:47:29;;;;;;;40.53;18.98;;;;;;;6.36;100.00;98457.09;5040289;28;20048;-71
2023/11/16 01:49:56;;;;;;;40.63;19.05;;;;;;;6.38;100.00;98461.22;5056405;28;20105;-70
2023/11/16 01:52:23;;;;;;;38.17;19.00;;;;;;;6.35;100.00;98461.53;5007372;28;20050;-71
2023/11/16 01:54:48;;;;;;;38.97;19.13;;;;;;;6.36;100.00;98463.22;5023462;28;20567;-71
2023/11/16 01:57:15;;;;;;;45.13;20.02;;;;;;;6.32;100.00;98466.34;5038453;28;20121;-70
2023/11/16 01:59:42;;;;;;;44.90;20.00;;;;;;;6.35;100.00;98472.09;5072363;28;20078;-71
2023/11/16 02:02:10;;;;;;;41.67;19.10;;;;;;;6.31;100.00;98468.13;5066297;27;20050;-70
2023/11/16 02:04:39;;;;;;;39.17;18.80;;;;;;;6.31;100.00;98465.50;5116866;27;20054;-71
2023/11/16 02:07:05;;;;;;;40.42;19.48;;;;;;;6.29;100.00;98466.63;5022390;28;20087;-71
2023/11/16 02:09:43;;;;;;;38.45;18.65;;;;;;;6.45;100.00;98459.63;5024535;28;20048;-70
2023/11/16 02:12:12;;;;;;;39.30;19.52;;;;;;;6.31;100.00;98467.31;4985497;28;20065;-70
2023/11/16 02:14:44;;;;;;;39.45;18.98;;;;;;;6.46;100.00;98463.06;4985130;28;20064;-70
2023/11/16 02:17:10;;;;;;;40.03;18.35;;;;;;;6.27;100.00;98468.63;5037837;28;20167;-70
2023/11/16 02:19:37;;;;;;;38.03;19.00;;;;;;;6.30;100.00;98469.13;5026606;28;20433;-74
2023/11/16 02:22:03;;;;;;;37.22;19.55;;;;;;;6.32;100.00;98464.50;4984286;28;20203;-69
2023/11/16 02:24:30;;;;;;;41.03;19.58;;;;;;;6.28;100.00;98460.53;4982342;28;20135;-70
2023/11/16 02:26:56;;;;;;;35.83;19.05;;;;;;;6.30;100.00;98468.28;4980339;28;20493;-71
2023/11/16 02:29:24;;;;;;;35.47;18.48;;;;;;;6.26;100.00;98467.78;4979811;28;20057;-72
2023/11/16 02:31:50;;;;;;;38.95;19.45;;;;;;;6.30;100.00;98466.50;4997498;28;20053;-71
2023/11/16 02:34:17;;;;;;;45.08;19.95;;;;;;;6.29;100.00;98466.63;4965741;28;20087;-70
2023/11/16 02:36:48;;;;;;;41.03;20.45;;;;;;;6.29;100.00;98470.09;4983581;28;20112;-72
2023/11/16 02:39:15;;;;;;;44.47;20.00;;;;;;;6.40;100.00;98474.25;5056571;28;20048;-73
2023/11/16 02:41:42;;;;;;;39.33;19.33;;;;;;;6.34;100.00;98472.25;5016462;28;20659;-73
2023/11/16 02:44:10;;;;;;;44.90;21.52;;;;;;;6.36;100.00;98476.41;4976695;28;20598;-71
2023/11/16 02:46:38;;;;;;;45.95;19.80;;;;;;;6.44;100.00;98472.97;4960715;28;20046;-71
2023/11/16 02:49:05;;;;;;;42.63;20.50;;;;;;;6.45;100.00;98483.34;4976704;28;20054;-71
2023/11/16 02:51:32;;;;;;;39.38;19.15;;;;;;;6.47;100.00;98480.56;4992977;28;20110;-70
2023/11/16 02:54:02;;;;;;;49.42;19.75;;;;;;;6.47;100.00;98480.56;4960794;28;20062;-70
2023/11/16 02:56:29;;;;;;;41.95;19.63;;;;;;;6.63;100.00;98480.56;4944802;28;20058;-70
2023/11/16 02:58:55;;;;;;;47.40;19.90;;;;;;;6.52;100.00;98483.50;4970029;28;20073;-71
2023/11/16 03:01:22;;;;;;;43.88;18.75;;;;;;;6.51;100.00;98473.97;4996331;28;20081;-72
2023/11/16 03:03:48;;;;;;;37.88;19.00;;;;;;;6.55;100.00;98486.66;4996455;28;20057;-71
2023/11/16 03:06:15;;;;;;;35.00;18.45;;;;;;;6.57;100.00;98468.88;4960381;28;20054;-71
2023/11/16 03:08:41;;;;;;;39.20;18.35;;;;;;;6.61;100.00;98483.38;4960650;28;20046;-72
2023/11/16 03:11:09;;;;;;;41.80;17.88;;;;;;;6.62;100.00;98485.03;4944778;28;20597;-72
2023/11/16 03:13:36;;;;;;;39.72;18.55;;;;;;;6.57;100.00;98484.69;4956245;28;20533;-71
2023/11/16 03:16:05;;;;;;;38.20;17.85;;;;;;;6.63;100.00;98481.41;5010019;28;20152;-72
2023/11/16 03:18:32;;;;;;;41.35;19.55;;;;;;;6.63;100.00;98489.31;5052067;28;20041;-72
2023/11/16 03:20:58;;;;;;;37.47;19.25;;;;;;;6.70;100.00;98492.16;5019122;28;20053;-72
2023/11/16 03:23:26;;;;;;;42.35;20.52;;;;;;;6.67;100.00;98492.47;5035320;28;20056;-72
2023/11/16 03:25:54;;;;;;;40.80;19.02;;;;;;;6.70;100.00;98497.44;5035516;28;20071;-72
2023/11/16 03:28:20;;;;;;;41.67;19.73;;;;;;;6.72;100.00;98493.63;5032098;28;20049;-71
2023/11/16 03:30:45;;;;;;;41.78;18.48;;;;;;;6.74;100.00;98496.09;5031858;28;20236;-71
2023/11/16 03:33:12;;;;;;;41.55;19.65;;;;;;;6.78;100.00;98490.34;5031428;28;20928;-72
2023/11/16 03:35:39;;;;;;;46.10;19.17;;;;;;;6.78;100.00;98492.97;5018415;28;20049;-72
2023/11/16 03:38:06;;;;;;;40.80;18.70;;;;;;;6.82;100.00;98494.31;5030584;28;20050;-72
2023/11/16 03:40:32;;;;;;;42.42;18.50;;;;;;;6.87;100.00;98496.47;4992117;28;20091;-73
2023/11/16 03:42:58;;;;;;;36.15;18.98;;;;;;;6.91;100.00;98500.44;5045577;28;20100;-72
2023/11/16 03:45:24;;;;;;;55.53;19.20;;;;;;;6.96;100.00;98505.22;5047146;28;20060;-72
2023/11/16 03:47:50;;;;;;;44.20;20.52;;;;;;;6.98;100.00;98506.69;5033872;28;20151;-72
2023/11/16 03:50:17;;;;;;;40.72;18.55;;;;;;;7.04;100.00;98500.78;5013580;28;20049;-70
2023/11/16 03:52:45;;;;;;;40.78;18.42;;;;;;;7.08;100.00;98510.03;5031504;28;20061;-71
2023/11/16 03:55:10;;;;;;;48.38;18.40;;;;;;;7.13;100.00;98505.09;5028798;28;20049;-71
2023/11/16 03:57:36;;;;;;;44.60;19.60;;;;;;;7.16;100.00;98510.03;4997652;28;20071;-71
2023/11/16 04:00:02;;;;;;;44.20;19.20;;;;;;;7.21;100.00;98514.81;5042648;28;20049;-71
2023/11/16 04:02:41;;;;;;;52.72;19.42;;;;;;;7.37;100.00;98512.19;5051008;28;20048;-73
2023/11/16 04:05:09;;;;;;;54.67;21.83;;;;;;;7.36;100.00;98518.47;5051124;28;20052;-73
2023/11/16 04:07:37;;;;;;;53.33;22.30;;;;;;;7.27;100.00;98512.38;5017361;28;20051;-73
2023/11/16 04:10:09;;;;;;;47.90;22.95;;;;;;;7.23;100.00;98515.47;5020018;28;20510;-71
2023/11/16 04:12:41;;;;;;;46.55;22.23;;;;;;;7.40;100.00;98514.47;5013364;28;20168;-70
2023/11/16 04:15:13;;;;;;;54.03;22.00;;;;;;;7.26;100.00;98523.91;5006188;28;20045;-69
2023/11/16 04:17:40;;;;;;;51.40;22.52;;;;;;;7.36;100.00;98529.84;5008736;28;20508;-70
2023/11/16 04:20:11;;;;;;;52.45;22.02;;;;;;;7.27;100.00;98527.38;4992041;28;20052;-69
2023/11/16 04:22:40;;;;;;;52.80;23.25;;;;;;;7.36;100.00;98526.38;5011866;28;20052;-69
2023/11/16 04:25:08;;;;;;;55.35;21.80;;;;;;;7.36;100.00;98526.38;5043405;28;20051;-69
2023/11/16 04:27:34;;;;;;;55.03;23.80;;;;;;;7.22;100.00;98527.88;5025932;28;20061;-70
2023/11/16 04:30:02;;;;;;;54.05;23.73;;;;;;;7.20;100.00;98527.19;5037164;28;20090;-69
2023/11/16 04:32:30;;;;;;;55.30;23.92;;;;;;;7.20;100.00;98521.06;5043204;28;20072;-69
2023/11/16 04:34:56;;;;;;;60.53;23.70;;;;;;;7.20;100.00;98529.84;5021137;28;20080;-68
2023/11/16 04:37:23;;;;;;;53.28;23.85;;;;;;;7.20;100.00;98526.34;5019490;28;20170;-69
2023/11/16 04:39:49;;;;;;;54.55;25.02;;;;;;;7.21;100.00;98538.59;5004185;28;20060;-70
2023/11/16 04:42:15;;;;;;;50.50;24.02;;;;;;;7.17;100.00;98538.09;5018948;28;20046;-69
2023/11/16 04:44:44;;;;;;;60.30;26.13;;;;;;;7.11;100.00;98538.75;5006543;28;20044;-68
2023/11/16 04:47:11;;;;;;;60.92;24.45;;;;;;;7.13;100.00;98541.22;5010052;28;20044;-69
2023/11/16 04:49:37;;;;;;;63.05;24.42;;;;;;;7.15;100.00;98536.59;5039240;28;20058;-68
2023/11/16 04:52:03;;;;;;;57.83;23.83;;;;;;;7.15;100.00;98542.69;5043777;28;20039;-67
2023/11/16 04:54:30;;;;;;;56.60;24.90;;;;;;;7.16;100.00;98546.16;5059287;28;20051;-67
2023/11/16 04:56:55;;;;;;;59.15;24.65;;;;;;;7.19;100.00;98545.84;5059491;28;20048;-68
2023/11/16 04:59:21;;;;;;;63.50;24.95;;;;;;;7.25;100.00;98547.81;5060319;28;20051;-66
2023/11/16 05:01:47;;;;;;;55.33;24.92;;;;;;;7.26;100.00;98546.84;5076849;28;20035;-71
2023/11/16 05:04:13;;;;;;;60.28;23.58;;;;;;;7.25;100.00;98545.19;5040713;28;20841;-70
2023/11/16 05:06:40;;;;;;;63.13;25.60;;;;;;;7.27;100.00;98554.63;5122368;27;20138;-70
2023/11/16 05:09:08;;;;;;;47.80;23.45;;;;;;;7.27;100.00;98557.25;5058810;28;20091;-71
2023/11/16 05:11:34;;;;;;;50.30;22.95;;;;;;;7.31;100.00;98549.81;5091450;28;20126;-70
2023/11/16 05:14:01;;;;;;;54.55;25.55;;;;;;;7.33;100.00;98548.69;5075272;28;20059;-70
2023/11/16 05:16:27;;;;;;;50.70;23.40;;;;;;;7.34;100.00;98560.03;5068250;28;20044;-71
2023/11/16 05:18:53;;;;;;;52.08;22.45;;;;;;;7.36;100.00;98563.34;5035895;28;20550;-70
2023/11/16 05:21:19;;;;;;;51.47;23.23;;;;;;;7.32;100.00;98556.75;5051541;28;20062;-71
2023/11/16 05:23:45;;;;;;;60.15;24.52;;;;;;;7.34;100.00;98565.31;5051467;28;20090;-70
2023/11/16 05:26:11;;;;;;;51.10;21.80;;;;;;;7.37;100.00;98570.28;5035057;28;20084;-70
2023/11/16 05:28:37;;;;;;;53.33;21.10;;;;;;;7.37;100.00;98570.28;5035176;28;20051;-70
2023/11/16 05:31:06;;;;;;;53.83;22.13;;;;;;;7.40;100.00;98564.66;5051898;28;20063;-70
2023/11/16 05:33:32;;;;;;;46.30;18.90;;;;;;;7.42;100.00;98573.25;5034853;28;20048;-69
2023/11/16 05:35:59;;;;;;;43.40;19.77;;;;;;;7.42;100.00;98578.53;5051415;28;20049;-69
2023/11/16 05:38:26;;;;;;;43.63;18.33;;;;;;;7.44;100.00;98577.38;5035460;28;20145;-74
2023/11/16 05:40:53;;;;;;;41.50;19.25;;;;;;;7.50;100.00;98581.19;5068829;28;20449;-69
2023/11/16 05:43:19;;;;;;;45.72;19.08;;;;;;;7.55;100.00;98582.34;5058284;28;20047;-69
2023/11/16 05:45:46;;;;;;;42.50;18.30;;;;;;;7.54;100.00;98587.78;5054953;28;20128;-70
2023/11/16 05:48:12;;;;;;;48.05;19.83;;;;;;;7.48;100.00;98583.16;5071553;28;20395;-69
2023/11/16 05:50:38;;;;;;;39.40;18.35;;;;;;;7.41;100.00;98579.53;5051292;28;20112;-68
2023/11/16 05:53:08;;;;;;;46.03;18.38;;;;;;;7.39;100.00;98594.72;5034987;28;20161;-70
2023/11/16 05:55:37;;;;;;;37.85;17.25;;;;;;;7.31;100.00;98586.78;5035415;28;20048;-69
2023/11/16 05:58:06;;;;;;;32.03;16.63;;;;;;;7.30;100.00;98579.84;5018701;28;20060;-70
2023/11/16 06:00:33;;;;;;;37.97;17.38;;;;;;;7.27;100.00;98586.31;5018875;28;20145;-69
2023/11/16 06:02:59;;;;;;;33.42;15.63;;;;;;;7.33;100.00;98584.81;5034950;28;20499;-69
2023/11/16 06:05:26;;;;;;;32.10;15.60;;;;;;;7.31;100.00;98586.78;5051343;28;20079;-71
2023/11/16 06:07:51;;;;;;;29.70;14.77;;;;;;;7.32;100.00;98583.16;5068017;28;20041;-71
2023/11/16 06:10:17;;;;;;;28.50;15.02;;;;;;;7.34;100.00;98581.16;5034869;28;20063;-71
2023/11/16 06:12:47;;;;;;;30.95;14.07;;;;;;;7.35;100.00;98591.56;5034538;28;20102;-71
2023/11/16 06:15:18;;;;;;;21.73;12.80;;;;;;;7.38;100.00;98593.88;5035118;28;20051;-72
2023/11/16 06:17:44;;;;;;;24.05;12.93;;;;;;;7.32;100.00;98591.09;5072013;28;20109;-72
2023/11/16 06:20:11;;;;;;;21.20;11.80;;;;;;;7.36;100.00;98595.06;5074809;28;20147;-71
2023/11/16 06:22:41;;;;;;;24.67;11.50;;;;;;;7.51;100.00;98603.97;5093771;28;20470;-72
2023/11/16 06:25:10;;;;;;;24.73;11.60;;;;;;;7.46;100.00;98596.53;5096315;28;20050;-72
2023/11/16 06:27:37;;;;;;;24.38;11.95;;;;;;;7.38;100.00;98607.09;5079817;28;20043;-71
2023/11/16 06:30:07;;;;;;;24.98;12.73;;;;;;;7.40;100.00;98607.75;5079890;28;20058;-72
2023/11/16 06:32:35;;;;;;;22.20;12.77;;;;;;;7.41;100.00;98608.59;5096311;28;20128;-70
2023/11/16 06:35:03;;;;;;;22.67;12.60;;;;;;;7.29;100.00;98609.91;5071369;28;20101;-70
2023/11/16 06:37:31;;;;;;;28.75;11.93;;;;;;;7.26;100.00;98603.13;5054874;28;20503;-72
2023/11/16 06:39:59;;;;;;;20.27;11.07;;;;;;;7.39;100.00;98606.13;5040061;28;20070;-74
2023/11/16 06:42:26;;;;;;;21.08;11.48;;;;;;;7.28;100.00;98606.44;5077793;28;20051;-73
2023/11/16 06:44:53;;;;;;;25.95;11.05;;;;;;;7.28;100.00;98603.78;5055389;28;20040;-72
2023/11/16 06:47:19;;;;;;;23.67;11.05;;;;;;;7.29;100.00;98612.53;5054629;28;20040;-68
2023/11/16 06:49:49;;;;;;;23.08;10.25;;;;;;;7.28;100.00;98616.16;5041305;28;20052;-67
2023/11/16 06:52:19;;;;;;;18.75;10.20;;;;;;;7.39;100.00;98618.50;5075404;28;20040;-75
2023/11/16 06:54:46;;;;;;;20.07;9.53;;;;;;;7.32;100.00;98620.94;5058772;28;20055;-76
2023/11/16 06:57:13;;;;;;;24.30;9.95;;;;;;;7.26;100.00;98620.78;5074646;28;20109;-78
2023/11/16 06:59:42;;;;;;;18.52;9.27;;;;;;;7.13;100.00;98617.78;5091817;28;20051;-77
2023/11/16 07:02:10;;;;;;;21.70;8.90;;;;;;;7.19;100.00;98625.06;5041845;28;20047;-74
2023/11/16 07:04:40;;;;;;;16.42;9.05;;;;;;;7.14;100.00;98624.69;5074862;28;20131;-76
2023/11/16 07:07:11;;;;;;;19.98;9.75;;;;;;;7.06;100.00;98627.34;5097922;27;20074;-76
2023/11/16 07:09:38;;;;;;;17.50;9.13;;;;;;;7.07;100.00;98634.25;5094265;28;20058;-77
2023/11/16 07:12:04;;;;;;;16.23;9.15;;;;;;;7.10;100.00;98631.31;5076767;28;20059;-77
2023/11/16 07:14:30;;;;;;;15.57;8.98;;;;;;;7.10;100.00;98634.78;5077473;28;20050;-75
2023/11/16 07:16:57;;;;;;;17.35;8.98;;;;;;;7.12;100.00;98634.63;5112062;28;20096;-75
2023/11/16 07:19:26;;;;;;;15.48;8.52;;;;;;;7.11;100.00;98633.78;5080186;27;20051;-75
2023/11/16 07:21:54;;;;;;;16.42;9.27;;;;;;;7.14;100.00;98638.75;5108027;28;20059;-74
2023/11/16 07:24:20;;;;;;;19.98;8.85;;;;;;;7.14;100.00;98636.09;5056959;28;20048;-77
2023/11/16 07:26:48;;;;;;;17.65;9.52;;;;;;;7.27;100.00;98646.19;5057422;28;20177;-76
2023/11/16 07:29:17;;;;;;;15.18;9.18;;;;;;;7.18;100.00;98641.91;5090978;28;20135;-75
2023/11/16 07:31:43;;;;;;;16.10;8.57;;;;;;;7.22;100.00;98645.84;5030378;28;20053;-74
2023/11/16 07:34:11;;;;;;;18.00;9.50;;;;;;;7.26;100.00;98642.72;5030237;28;20054;-74
2023/11/16 07:36:37;;;;;;;17.02;9.10;;;;;;;7.21;100.00;98644.22;5030029;28;20065;-74
2023/11/16 07:39:04;;;;;;;19.45;10.00;;;;;;;7.19;100.00;98651.47;5030261;28;20400;-74
2023/11/16 07:41:32;;;;;;;15.85;9.60;;;;;;;7.35;100.00;98643.59;5030243;28;20060;-75
2023/11/16 07:44:00;;;;;;;19.20;10.05;;;;;;;7.22;100.00;98656.41;5013752;28;20504;-75
2023/11/16 07:46:26;;;;;;;16.08;9.65;;;;;;;7.22;100.00;98659.06;5011415;28;20053;-74
2023/11/16 07:48:51;;;;;;;19.42;8.65;;;;;;;7.24;100.00;98662.38;5011170;28;20586;-76
2023/11/16 07:51:19;;;;;;;16.10;9.88;;;;;;;7.26;100.00;98663.03;5026894;28;20053;-76
2023/11/16 07:53:55;;;;;;;21.45;10.90;;;;;;;7.25;100.00;98664.00;5019040;28;20050;-75
2023/11/16 07:56:22;;;;;;;21.70;10.25;;;;;;;7.26;100.00;98663.03;5046699;28;20053;-77
2023/11/16 07:58:52;;;;;;;21.02;11.25;;;;;;;7.30;100.00;98659.09;5009781;28;20465;-75
2023/11/16 08:01:22;;;;;;;19.38;10.88;;;;;;;7.25;100.00;98661.38;5010557;28;20115;-74
2023/11/16 08:03:55;;;;;;;20.17;10.75;;;;;;;7.26;100.00;98660.41;5037076;28;20043;-76
2023/11/16 08:06:23;;;;;;;23.38;10.88;;;;;;;7.31;100.00;98669.47;5041077;28;20054;-79
2023/11/16 08:08:52;;;;;;;17.67;10.27;;;;;;;7.23;100.00;98668.63;5016809;28;20041;-77
2023/11/16 08:11:19;;;;;;;19.58;10.18;;;;;;;7.28;100.00;98669.81;5049536;28;20060;-78
2023/11/16 08:13:46;;;;;;;19.40;11.55;;;;;;;7.35;100.00;98662.06;5032579;28;20057;-78
2023/11/16 08:16:21;;;;;;;19.67;10.23;;;;;;;7.48;100.00;98663.25;5032994;28;20036;-80
2023/11/16 08:18:48;;;;;;;20.52;11.18;;;;;;;7.32;100.00;98667.69;5032881;28;20052;-76
2023/11/16 08:21:16;;;;;;;24.23;13.55;;;;;;;7.40;100.00;98668.53;5016413;28;20141;-78
2023/11/16 08:23:45;;;;;;;19.25;10.88;;;;;;;7.49;100.00;98672.03;5017676;28;20052;-81
2023/11/16 08:26:13;;;;;;;21.02;11.60;;;;;;;7.48;100.00;98673.00;5069422;28;20047;-80
2023/11/16 08:28:44;;;;;;;25.00;12.25;;;;;;;7.50;100.00;98673.66;5054002;28;20411;-78
2023/11/16 08:31:12;;;;;;;24.98;10.77;;;;;;;7.51;100.00;98670.03;5059771;28;20035;-76
2023/11/16 08:33:43;;;;;;;20.73;10.98;;;;;;;7.58;100.00;98674.50;5062656;27;20062;-82
2023/11/16 08:36:13;;;;;;;19.08;10.43;;;;;;;7.52;100.00;98679.63;5079594;27;20050;-74
2023/11/16 08:38:45;;;;;;;16.73;9.70;;;;;;;7.49;99.93;98677.31;5081097;27;20039;-77
2023/11/16 08:41:15;;;;;;;18.65;10.40;;;;;;;7.45;99.59;98686.53;5139400;27;20559;-78
2023/11/16 08:43:42;;;;;;;20.55;10.75;;;;;;;7.48;99.75;98678.28;5121541;27;20042;-79
2023/11/16 08:46:10;;;;;;;20.13;10.90;;;;;;;7.38;99.40;98680.25;5137830;27;20050;-77
2023/11/16 08:48:36;;;;;;;17.15;10.07;;;;;;;7.39;99.21;98677.44;5137865;27;20034;-79
2023/11/16 08:51:05;;;;;;;19.40;11.35;;;;;;;7.46;99.62;98689.00;5137995;27;20073;-80
2023/11/16 08:53:39;;;;;;;18.20;11.25;;;;;;;7.58;99.73;98684.25;5120913;27;20042;-74
2023/11/16 08:56:07;;;;;;;23.00;11.95;;;;;;;7.38;99.57;98693.44;5121367;27;20485;-78
2023/11/16 08:58:34;;;;;;;27.58;10.82;;;;;;;7.43;99.35;98684.03;5137719;27;20565;-78
2023/11/16 09:01:05;;;;;;;20.80;10.70;;;;;;;7.43;99.55;98686.69;5138095;27;20518;-78
2023/11/16 09:03:33;;;;;;;17.13;10.68;;;;;;;7.40;99.45;98694.09;5137981;27;20049;-74
2023/11/16 09:06:15;;;;;;;20.10;10.13;;;;;;;7.52;99.62;98688.34;5120874;27;20488;-76
2023/11/16 09:08:50;;;;;;;20.48;10.85;;;;;;;7.54;99.39;98685.53;5155560;27;20038;-78
2023/11/16 09:11:17;;;;;;;17.00;10.38;;;;;;;7.38;99.35;98694.25;5119137;27;20049;-77
2023/11/16 09:13:44;;;;;;;19.20;11.18;;;;;;;7.34;99.12;98684.16;5137122;27;20058;-75
2023/11/16 09:16:12;;;;;;;22.15;11.13;;;;;;;7.24;99.60;98688.78;5137626;27;20047;-77
2023/11/16 09:18:41;;;;;;;22.38;12.35;;;;;;;7.21;99.04;98687.25;5111960;28;20043;-77
2023/11/16 09:21:09;;;;;;;23.52;11.50;;;;;;;7.21;98.93;98689.09;5079863;27;20055;-77
2023/11/16 09:23:36;;;;;;;20.48;12.38;;;;;;;7.23;99.11;98697.66;5061748;27;20375;-75
2023/11/16 09:26:02;;;;;;;24.38;13.32;;;;;;;7.24;99.10;98691.41;5055511;28;20084;-77
2023/11/16 09:28:30;;;;;;;25.85;12.75;;;;;;;7.23;99.32;98689.75;5038563;28;20561;-78
2023/11/16 09:30:58;;;;;;;24.67;13.15;;;;;;;7.24;99.26;98691.41;5021943;28;20058;-75
2023/11/16 09:33:24;;;;;;;22.88;12.63;;;;;;;7.24;98.96;98696.69;5071109;28;20095;-75
2023/11/16 09:35:54;;;;;;;22.63;12.70;;;;;;;7.19;98.10;98697.19;5021861;28;20048;-76
2023/11/16 09:38:20;;;;;;;18.67;11.80;;;;;;;7.22;97.96;98696.03;5038584;28;20063;-79
2023/11/16 09:40:48;;;;;;;22.73;12.20;;;;;;;7.19;98.02;98696.34;5055183;28;20057;-80
2023/11/16 09:43:17;;;;;;;21.23;11.80;;;;;;;7.20;98.03;98700.63;5038189;28;20048;-72
2023/11/16 09:45:54;;;;;;;19.90;11.82;;;;;;;7.38;98.34;98704.00;5055209;28;20055;-73
2023/11/16 09:48:20;;;;;;;21.50;11.73;;;;;;;7.23;97.88;98695.88;5022675;28;20036;-73
2023/11/16 09:50:48;;;;;;;19.90;12.18;;;;;;;7.25;98.06;98701.81;5081932;27;20145;-72
2023/11/16 09:53:27;;;;;;;24.25;13.00;;;;;;;7.17;97.95;98696.50;5082049;27;20042;-73
2023/11/16 09:55:58;;;;;;;22.02;12.88;;;;;;;7.10;97.64;98699.94;5132187;27;20034;-73
2023/11/16 09:58:28;;;;;;;19.45;11.73;;;;;;;7.16;97.39;98704.59;5138392;27;20034;-73
2023/11/16 10:00:58;;;;;;;19.55;12.02;;;;;;;7.17;98.97;98701.78;5120938;27;20042;-73
2023/11/16 10:03:31;;;;;;;18.90;11.65;;;;;;;-141.23;100.00;62281.09;5137323;27;20054;-73
2023/11/16 10:05:58;;;;;;;26.90;14.63;;;;;;;-141.23;100.00;62281.09;5154993;27;20095;-73
2023/11/16 10:08:25;;;;;;;19.88;12.05;;;;;;;-141.23;100.00;62281.09;5120415;27;20034;-72
2023/11/16 10:10:56;;;;;;;18.40;12.02;;;;;;;-141.23;100.00;62281.09;5154886;27;20582;-74
2023/11/16 10:13:24;;;;;;;23.25;11.63;;;;;;;-141.23;100.00;62281.09;5119334;27;20038;-72
2023/11/16 10:15:52;;;;;;;17.13;10.75;;;;;;;-141.23;100.00;62281.09;5171783;27;20152;-73
2023/11/16 10:18:19;;;;;;;18.65;11.15;;;;;;;-141.23;100.00;62281.09;5120399;27;20132;-72
2023/11/16 10:20:47;;;;;;;21.52;11.38;;;;;;;-141.23;100.00;62281.09;5120219;27;20069;-73
2023/11/16 10:23:13;;;;;;;19.35;10.75;;;;;;;-141.23;100.00;62281.09;5135261;27;20401;-72
2023/11/16 10:25:40;;;;;;;16.50;11.70;;;;;;;-141.23;100.00;62281.09;5136310;27;20107;-73
2023/11/16 10:28:22;;;;;;;17.17;10.85;;;;;;;-141.23;100.00;62281.09;5102317;27;20046;-72
2023/11/16 10:30:54;;;;;;;23.48;10.95;;;;;;;-141.23;100.00;62281.09;5086110;27;20512;-72
2023/11/16 10:33:23;;;;;;;19.75;10.88;;;;;;;-141.23;100.00;62281.09;5102526;27;20437;-73
2023/11/16 10:35:55;;;;;;;17.75;10.48;;;;;;;-141.23;100.00;62281.09;5119472;27;20145;-74
2023/11/16 10:38:22;;;;;;;15.18;9.82;;;;;;;-141.23;100.00;62281.09;5081901;27;20051;-74
2023/11/16 10:40:51;;;;;;;17.08;10.93;;;;;;;-141.23;100.00;62281.09;5095057;28;20048;-72
2023/11/16 10:43:22;;;;;;;18.93;11.30;;;;;;;-141.23;100.00;62281.09;5045478;28;20513;-74
2023/11/16 10:45:51;;;;;;;25.33;12.00;;;;;;;-141.23;100.00;62281.09;5077814;28;20047;-74
2023/11/16 10:48:19;;;;;;;15.73;9.07;;;;;;;-141.23;100.00;62281.09;5061210;28;20497;-73
2023/11/16 10:50:46;;;;;;;12.23;8.32;;;;;;;-141.23;100.00;62281.09;5074223;28;20052;-74
2023/11/16 10:53:17;;;;;;;10.82;7.53;;;;;;;-141.23;100.00;62281.09;5028826;27;20514;-74
2023/11/16 10:55:46;;;;;;;;;;;;;;;-141.23;100.00;62281.09;5064909;27;20401;-74
2023/11/16 10:58:14;;;;;;;10.25;7.05;;;;;;;-141.23;100.00;62281.09;5094580;28;19956;-73
2023/11/16 11:00:41;;;;;;;14.90;8.30;;;;;;;-141.23;100.00;62281.09;5094938;28;20067;-74
2023/11/16 11:03:08;;;;;;;11.93;7.55;;;;;;;-141.23;100.00;62281.09;5028032;28;20055;-73
2023/11/16 11:05:37;;;;;;;14.10;7.07;;;;;;;-141.23;100.00;62281.09;5060869;28;20056;-73
2023/11/16 11:08:07;;;;;;;11.45;6.40;;;;;;;-141.23;100.00;62281.09;5061605;28;20087;-73
2023/11/16 11:10:37;;;;;;;12.80;7.40;;;;;;;-141.23;100.00;62281.09;5077998;28;20081;-72
2023/11/16 11:13:04;;;;;;;10.10;7.00;;;;;;;-141.23;100.00;62281.09;5064580;27;20076;-74
2023/11/16 11:15:31;;;;;;;9.68;6.13;;;;;;;-141.23;100.00;62281.09;5089122;27;20047;-72
2023/11/16 11:18:01;;;;;;;8.70;6.50;;;;;;;-141.23;100.00;62281.09;5084847;27;20076;-73
2023/11/16 11:20:37;;;;;;;10.02;6.07;;;;;;;7.33;98.97;98744.13;5100549;27;20452;-73
2023/11/16 11:23:15;;;;;;;9.60;6.05;;;;;;;7.34;98.69;98748.41;5093348;28;20059;-73